Time;durP1;ratioP1;P1;durP2;ratioP2;P2;SDS_P1;SDS_P2;PMS_P1;PMS_P2;Temp;Humidity;BMP_temperature;BMP_pressure;BME280_temperature;BME280_humidity;BME280_pressure;Samples;Min_cycle;Max_cycle;Signal;HPM_P1;HPM_P2
2023/10/21 00:00:36;;;;;;;1.90;1.40;;;15.00;83.60;;;;;;5090148;28;20464;-88
2023/10/21 00:03:05;;;;;;;1.33;1.13;;;15.10;83.60;;;;;;5090658;28;20410;-86
2023/10/21 00:05:34;;;;;;;2.30;1.60;;;15.00;83.00;;;;;;5089440;28;20465;-89
2023/10/21 00:08:04;;;;;;;1.40;1.13;;;15.10;83.70;;;;;;5090576;28;20779;-89
2023/10/21 00:10:33;;;;;;;1.30;1.00;;;15.00;83.60;;;;;;5089835;28;20544;-86
2023/10/21 00:13:01;;;;;;;2.80;0.97;;;15.00;83.20;;;;;;5090320;28;20849;-88
2023/10/21 00:15:29;;;;;;;1.30;0.80;;;15.00;83.10;;;;;;5089472;28;20495;-89
2023/10/21 00:17:57;;;;;;;2.23;1.00;;;15.00;82.60;;;;;;5090350;28;20488;-88
2023/10/21 00:20:26;;;;;;;1.67;1.03;;;15.00;82.90;;;;;;5089805;28;20463;-87
2023/10/21 00:22:55;;;;;;;1.97;1.07;;;15.00;82.30;;;;;;5091074;28;20434;-91
2023/10/21 00:25:24;;;;;;;3.30;1.00;;;15.10;83.10;;;;;;5073190;28;20461;-90
2023/10/21 00:27:52;;;;;;;1.73;1.40;;;15.00;82.80;;;;;;5090290;28;20472;-88
2023/10/21 00:30:22;;;;;;;1.60;1.30;;;15.10;84.10;;;;;;5090460;28;20463;-88
2023/10/21 00:32:50;;;;;;;2.10;0.97;;;15.00;84.50;;;;;;5090899;28;20468;-87
2023/10/21 00:35:19;;;;;;;1.80;1.10;;;15.10;84.10;;;;;;5090242;28;20488;-86
2023/10/21 00:37:47;;;;;;;1.30;0.80;;;15.00;84.10;;;;;;5076446;28;20457;-87
2023/10/21 00:40:17;;;;;;;4.07;1.13;;;15.00;83.40;;;;;;5053351;28;20464;-88
2023/10/21 00:42:45;;;;;;;1.40;1.10;;;15.00;83.60;;;;;;5053729;28;20468;-89
2023/10/21 00:45:13;;;;;;;2.10;1.10;;;15.00;84.20;;;;;;5055773;28;20501;-89
2023/10/21 00:47:42;;;;;;;2.23;1.13;;;15.00;84.80;;;;;;5070244;28;20429;-90
2023/10/21 00:50:10;;;;;;;1.30;1.00;;;15.00;84.20;;;;;;5073200;28;20453;-88
2023/10/21 00:52:46;;;;;;;1.67;1.13;;;15.00;83.70;;;;;;5074785;28;20424;-89
2023/10/21 00:55:15;;;;;;;2.70;1.63;;;15.00;83.80;;;;;;5073804;28;20508;-90
2023/10/21 00:57:44;;;;;;;4.70;1.30;;;15.00;84.30;;;;;;5074476;28;20429;-88
2023/10/21 01:00:16;;;;;;;1.50;1.30;;;15.00;85.20;;;;;;5073100;28;20837;-87
2023/10/21 01:02:47;;;;;;;1.87;1.43;;;15.00;84.50;;;;;;5074995;28;20410;-88
2023/10/21 01:05:15;;;;;;;1.67;1.03;;;15.00;85.50;;;;;;5076331;28;20473;-88
2023/10/21 01:07:44;;;;;;;2.47;1.20;;;15.00;85.60;;;;;;5078660;28;20430;-89
2023/10/21 01:10:12;;;;;;;1.33;0.90;;;15.00;86.00;;;;;;5078341;28;20580;-87
2023/10/21 01:12:41;;;;;;;2.23;1.40;;;15.00;86.40;;;;;;5079247;28;20520;-87
2023/10/21 01:15:11;;;;;;;1.80;1.20;;;15.00;85.70;;;;;;5080853;28;20901;-85
2023/10/21 01:17:40;;;;;;;2.83;1.20;;;14.90;85.90;;;;;;5084073;28;20421;-89
2023/10/21 01:20:10;;;;;;;1.50;1.10;;;14.90;85.40;;;;;;5085749;28;20525;-89
2023/10/21 01:22:38;;;;;;;2.37;1.47;;;15.00;85.40;;;;;;5090926;28;20428;-89
2023/10/21 01:25:08;;;;;;;1.30;0.80;;;15.00;85.80;;;;;;5073125;28;20473;-90
2023/10/21 01:27:37;;;;;;;2.17;1.37;;;14.90;83.30;;;;;;5092762;28;21017;-91
2023/10/21 01:30:06;;;;;;;2.67;1.50;;;15.00;83.40;;;;;;5094383;28;20472;-89
2023/10/21 01:32:34;;;;;;;1.60;1.20;;;15.00;85.30;;;;;;5093805;28;20435;-90
2023/10/21 01:35:03;;;;;;;3.00;1.30;;;15.00;82.60;;;;;;5090672;28;20468;-90
2023/10/21 01:37:31;;;;;;;2.50;1.00;;;15.00;82.30;;;;;;5091191;28;20790;-88
2023/10/21 01:39:59;;;;;;;1.90;1.40;;;15.00;82.10;;;;;;5092055;28;20492;-89
2023/10/21 01:42:29;;;;;;;1.93;1.40;;;15.00;83.60;;;;;;5092355;28;20451;-87
2023/10/21 01:44:58;;;;;;;2.90;0.80;;;15.00;83.10;;;;;;5092184;28;20491;-88
2023/10/21 01:47:26;;;;;;;2.23;0.87;;;15.00;82.30;;;;;;5091870;28;20413;-89
2023/10/21 01:49:55;;;;;;;2.27;0.80;;;15.00;81.70;;;;;;5090440;28;20483;-87
2023/10/21 01:52:23;;;;;;;3.27;1.33;;;15.00;81.40;;;;;;5090595;28;20438;-88
2023/10/21 01:54:53;;;;;;;1.70;1.07;;;15.00;81.60;;;;;;5087787;28;20475;-87
2023/10/21 01:57:21;;;;;;;1.40;1.00;;;15.00;81.80;;;;;;5087572;28;20445;-88
2023/10/21 01:59:51;;;;;;;2.17;0.90;;;15.00;82.40;;;;;;5085867;28;20495;-88
2023/10/21 02:02:20;;;;;;;1.63;1.07;;;15.00;81.70;;;;;;5085724;28;20418;-89
2023/10/21 02:04:49;;;;;;;2.40;1.23;;;15.00;82.40;;;;;;5095134;28;20454;-91
2023/10/21 02:07:17;;;;;;;1.67;0.80;;;15.00;83.80;;;;;;5095400;28;20464;-91
2023/10/21 02:09:45;;;;;;;1.23;0.83;;;15.00;82.50;;;;;;5095203;28;20462;-92
2023/10/21 02:12:14;;;;;;;1.80;0.90;;;15.00;82.20;;;;;;5093853;28;20537;-91
2023/10/21 02:14:42;;;;;;;1.93;1.00;;;15.00;82.20;;;;;;5094247;28;20460;-89
2023/10/21 02:17:14;;;;;;;1.00;0.70;;;15.00;82.70;;;;;;5093946;28;20436;-92
2023/10/21 02:19:43;;;;;;;2.00;1.10;;;15.00;82.10;;;;;;5094333;28;20438;-93
2023/10/21 02:22:11;;;;;;;1.30;0.83;;;15.00;82.40;;;;;;5095038;28;20426;-92
2023/10/21 02:24:40;;;;;;;1.40;0.90;;;15.00;82.60;;;;;;5093620;28;20464;-92
2023/10/21 02:27:09;;;;;;;3.43;0.90;;;15.00;84.20;;;;;;5091157;28;20426;-87
2023/10/21 02:29:38;;;;;;;1.20;0.70;;;15.00;82.70;;;;;;5089313;28;20465;-89
2023/10/21 02:32:06;;;;;;;1.37;0.80;;;15.00;82.10;;;;;;5088977;28;20462;-92
2023/10/21 02:34:36;;;;;;;1.40;1.00;;;15.00;82.20;;;;;;5090496;28;20469;-92
2023/10/21 02:37:05;;;;;;;1.43;0.70;;;15.00;82.80;;;;;;5091672;28;20435;-89
2023/10/21 02:39:33;;;;;;;1.33;0.80;;;15.00;82.80;;;;;;5091282;28;20490;-91
2023/10/21 02:42:02;;;;;;;1.40;0.70;;;15.00;83.00;;;;;;5092002;28;20437;-88
2023/10/21 02:44:31;;;;;;;1.30;0.90;;;14.90;82.60;;;;;;5092164;28;20479;-90
2023/10/21 02:47:00;;;;;;;1.40;0.60;;;14.90;83.50;;;;;;5089748;28;20434;-87
2023/10/21 02:49:28;;;;;;;3.43;1.00;;;14.90;84.20;;;;;;5071720;28;20466;-93
2023/10/21 02:51:58;;;;;;;1.20;0.90;;;14.90;84.90;;;;;;5090211;28;20437;-89
2023/10/21 02:54:26;;;;;;;1.23;0.70;;;14.90;84.90;;;;;;5090580;28;20458;-91
2023/10/21 02:56:55;;;;;;;1.27;0.90;;;14.90;83.00;;;;;;5091043;28;20444;-92
2023/10/21 02:59:23;;;;;;;1.50;0.90;;;14.90;85.00;;;;;;5087712;28;20477;-88
2023/10/21 03:01:51;;;;;;;1.43;0.80;;;14.90;83.50;;;;;;5087207;28;20511;-89
2023/10/21 03:04:20;;;;;;;1.13;0.70;;;14.90;83.00;;;;;;5086317;28;20469;-88
2023/10/21 03:06:48;;;;;;;1.10;0.60;;;14.90;83.10;;;;;;5088617;28;20426;-89
2023/10/21 03:09:18;;;;;;;1.53;0.83;;;14.90;82.60;;;;;;5088245;28;20822;-91
2023/10/21 03:11:46;;;;;;;1.00;0.50;;;14.90;84.30;;;;;;5088552;28;20441;-90
2023/10/21 03:14:14;;;;;;;2.97;0.70;;;14.90;84.20;;;;;;5086017;28;20469;-88
2023/10/21 03:16:43;;;;;;;1.00;0.60;;;14.90;84.80;;;;;;5088878;28;20429;-89
2023/10/21 03:19:11;;;;;;;1.10;0.70;;;14.90;84.70;;;;;;5088855;28;20561;-88
2023/10/21 03:21:39;;;;;;;1.57;0.70;;;14.90;84.30;;;;;;5088831;28;20422;-87
2023/10/21 03:24:08;;;;;;;1.40;0.67;;;14.90;84.70;;;;;;5087946;28;20517;-88
2023/10/21 03:26:38;;;;;;;1.60;0.67;;;14.90;84.60;;;;;;5089944;28;20451;-91
2023/10/21 03:29:08;;;;;;;3.07;2.20;;;14.90;83.90;;;;;;5089443;28;20500;-92
2023/10/21 03:31:40;;;;;;;1.30;0.77;;;14.90;83.50;;;;;;5090196;28;20478;-88
2023/10/21 03:34:08;;;;;;;1.30;0.80;;;14.90;83.10;;;;;;5088880;28;20827;-87
2023/10/21 03:36:36;;;;;;;1.07;0.60;;;14.90;82.60;;;;;;5088476;28;20494;-90
2023/10/21 03:39:05;;;;;;;1.30;0.80;;;14.90;82.60;;;;;;5087259;28;20460;-89
2023/10/21 03:41:33;;;;;;;1.07;0.70;;;14.90;81.90;;;;;;5087506;28;20430;-92
2023/10/21 03:44:03;;;;;;;1.40;0.80;;;14.90;82.50;;;;;;5087240;28;20469;-89
2023/10/21 03:46:32;;;;;;;1.33;0.77;;;14.90;82.20;;;;;;5084597;28;20801;-88
2023/10/21 03:49:00;;;;;;;1.07;0.70;;;14.90;82.40;;;;;;5081987;28;20466;-87
2023/10/21 03:51:30;;;;;;;2.47;1.37;;;14.90;82.90;;;;;;5083557;28;20417;-89
2023/10/21 03:53:58;;;;;;;2.13;0.90;;;14.90;82.30;;;;;;5082433;28;20462;-88
2023/10/21 03:56:26;;;;;;;1.30;0.60;;;14.90;82.10;;;;;;5082029;28;20453;-86
2023/10/21 03:58:55;;;;;;;1.73;0.63;;;14.90;83.40;;;;;;5080118;28;20479;-87
2023/10/21 04:01:24;;;;;;;1.47;0.80;;;14.90;82.50;;;;;;5078985;28;20556;-91
2023/10/21 04:03:52;;;;;;;1.43;0.80;;;14.90;82.50;;;;;;5080765;28;20426;-88
2023/10/21 04:06:21;;;;;;;1.27;0.87;;;14.90;81.90;;;;;;5080801;28;20478;-89
2023/10/21 04:08:49;;;;;;;1.50;0.90;;;14.90;81.90;;;;;;5080102;28;20465;-91
2023/10/21 04:11:17;;;;;;;1.40;0.60;;;14.90;81.50;;;;;;5080299;28;20446;-90
2023/10/21 04:13:46;;;;;;;1.40;0.60;;;14.90;82.10;;;;;;5079244;28;20441;-84
2023/10/21 04:16:14;;;;;;;1.50;0.70;;;14.90;81.20;;;;;;5079697;28;20450;-88
2023/10/21 04:18:45;;;;;;;1.20;0.80;;;14.90;81.20;;;;;;5080473;28;20502;-89
2023/10/21 04:21:13;;;;;;;0.97;0.60;;;14.90;81.70;;;;;;5079414;28;20457;-87
2023/10/21 04:23:41;;;;;;;1.10;0.70;;;14.90;81.40;;;;;;5079090;28;20449;-88
2023/10/21 04:26:10;;;;;;;1.17;0.80;;;14.90;81.30;;;;;;5078771;28;20469;-91
2023/10/21 04:28:38;;;;;;;1.10;0.80;;;14.90;81.70;;;;;;5079340;28;20426;-87
2023/10/21 04:31:06;;;;;;;1.20;0.60;;;14.90;81.50;;;;;;5079445;28;20426;-88
2023/10/21 04:33:35;;;;;;;1.57;0.70;;;14.90;81.80;;;;;;5077560;28;20852;-90
2023/10/21 04:36:06;;;;;;;1.90;1.10;;;14.90;81.50;;;;;;5077669;28;20508;-85
2023/10/21 04:38:34;;;;;;;1.83;0.90;;;14.90;81.80;;;;;;5078781;28;20420;-87
2023/10/21 04:41:03;;;;;;;1.57;0.83;;;14.80;81.50;;;;;;5078940;28;20474;-88
2023/10/21 04:43:31;;;;;;;1.03;0.60;;;14.90;81.70;;;;;;5078320;28;20743;-86
2023/10/21 04:45:59;;;;;;;1.10;0.77;;;14.80;81.20;;;;;;5079456;28;20479;-86
2023/10/21 04:48:28;;;;;;;1.17;0.70;;;14.90;82.00;;;;;;5080022;28;20770;-87
2023/10/21 04:50:56;;;;;;;1.67;0.80;;;14.80;81.60;;;;;;5076527;28;20464;-89
2023/10/21 04:53:26;;;;;;;1.07;0.63;;;14.90;81.90;;;;;;5077983;28;20468;-90
2023/10/21 04:55:54;;;;;;;1.10;0.70;;;14.90;81.40;;;;;;5076428;28;20469;-87
2023/10/21 04:58:22;;;;;;;1.00;0.60;;;14.80;81.60;;;;;;5076946;28;20437;-87
2023/10/21 05:00:51;;;;;;;1.40;0.80;;;14.90;81.70;;;;;;5076803;28;20906;-86
2023/10/21 05:03:19;;;;;;;2.37;0.60;;;14.80;81.60;;;;;;5077500;28;20445;-86
2023/10/21 05:05:47;;;;;;;1.50;0.70;;;14.80;81.50;;;;;;5077536;28;20462;-86
2023/10/21 05:08:17;;;;;;;1.33;0.70;;;14.80;81.90;;;;;;5077678;28;20495;-88
2023/10/21 05:10:46;;;;;;;1.20;0.77;;;14.80;82.60;;;;;;5080403;28;20557;-89
2023/10/21 05:13:16;;;;;;;1.47;0.70;;;14.80;82.50;;;;;;5083414;28;20429;-90
2023/10/21 05:15:45;;;;;;;1.00;0.50;;;14.80;82.60;;;;;;5082337;28;20481;-90
2023/10/21 05:18:13;;;;;;;1.10;0.50;;;14.80;82.90;;;;;;5083353;28;20490;-89
2023/10/21 05:20:41;;;;;;;1.40;0.60;;;14.80;82.70;;;;;;5084704;28;20535;-92
2023/10/21 05:23:10;;;;;;;0.93;0.53;;;14.80;82.70;;;;;;5085999;28;20461;-92
2023/10/21 05:25:38;;;;;;;1.00;0.60;;;14.80;83.50;;;;;;5083338;28;20474;-89
2023/10/21 05:28:08;;;;;;;1.10;0.57;;;14.80;83.60;;;;;;5081114;28;20441;-91
2023/10/21 05:30:36;;;;;;;1.20;0.70;;;14.80;82.90;;;;;;5077535;28;20477;-88
2023/10/21 05:33:04;;;;;;;2.30;0.57;;;14.80;82.80;;;;;;5078773;28;20438;-91
2023/10/21 05:35:37;;;;;;;1.20;0.80;;;14.80;82.50;;;;;;5080249;28;20484;-92
2023/10/21 05:38:05;;;;;;;1.10;0.50;;;14.80;83.50;;;;;;5081514;28;20480;-88
2023/10/21 05:40:35;;;;;;;0.90;0.50;;;14.80;84.20;;;;;;5081808;28;20493;-89
2023/10/21 05:43:03;;;;;;;2.40;0.87;;;14.80;84.90;;;;;;5083810;28;20430;-89
2023/10/21 05:45:34;;;;;;;1.63;0.70;;;14.80;83.70;;;;;;5080738;28;20475;-89
2023/10/21 05:48:03;;;;;;;1.03;0.50;;;14.80;84.30;;;;;;5082408;28;21002;-91
2023/10/21 05:50:32;;;;;;;2.03;0.53;;;14.70;84.30;;;;;;5086779;28;20465;-89
2023/10/21 05:53:00;;;;;;;1.67;0.70;;;14.80;84.20;;;;;;5084330;28;20513;-87
2023/10/21 05:55:28;;;;;;;1.67;0.80;;;14.80;84.70;;;;;;5082727;28;20694;-89
2023/10/21 05:57:57;;;;;;;1.70;0.70;;;14.80;84.90;;;;;;5083112;28;20536;-90
2023/10/21 06:00:25;;;;;;;1.87;0.90;;;14.80;83.80;;;;;;5081370;28;20484;-88
2023/10/21 06:02:55;;;;;;;1.57;0.60;;;14.80;84.60;;;;;;5081627;28;20448;-88
2023/10/21 06:05:24;;;;;;;1.43;0.50;;;14.70;83.20;;;;;;5080863;28;20465;-90
2023/10/21 06:07:52;;;;;;;1.10;0.53;;;14.80;84.30;;;;;;5080849;28;20459;-88
2023/10/21 06:10:20;;;;;;;1.60;0.50;;;14.80;84.40;;;;;;5080870;28;20580;-88
2023/10/21 06:12:49;;;;;;;1.13;0.60;;;14.80;84.20;;;;;;5081568;28;20998;-87
2023/10/21 06:15:17;;;;;;;1.20;0.70;;;14.80;84.80;;;;;;5079461;28;20500;-91
2023/10/21 06:17:46;;;;;;;1.30;0.67;;;14.80;84.80;;;;;;5079044;28;20446;-90
2023/10/21 06:20:16;;;;;;;2.03;0.90;;;14.70;84.70;;;;;;5078317;28;20494;-90
2023/10/21 06:22:44;;;;;;;1.07;0.63;;;14.70;85.00;;;;;;5077294;28;20462;-88
2023/10/21 06:25:14;;;;;;;1.10;0.63;;;14.80;84.70;;;;;;5075875;28;20474;-86
2023/10/21 06:27:42;;;;;;;0.90;0.50;;;14.70;84.70;;;;;;5074925;28;20439;-86
2023/10/21 06:30:11;;;;;;;1.23;0.60;;;14.70;84.20;;;;;;5074425;28;20469;-89
2023/10/21 06:32:39;;;;;;;1.47;0.73;;;14.70;83.80;;;;;;5075793;28;20417;-90
2023/10/21 06:35:08;;;;;;;1.83;0.60;;;14.80;83.80;;;;;;5073642;28;20554;-89
2023/10/21 06:37:39;;;;;;;1.30;0.47;;;14.70;83.70;;;;;;5075557;28;20473;-88
2023/10/21 06:40:08;;;;;;;0.90;0.40;;;14.80;83.30;;;;;;5074491;28;20538;-86
2023/10/21 06:42:36;;;;;;;2.13;0.60;;;14.70;83.40;;;;;;5075512;28;20465;-89
2023/10/21 06:45:05;;;;;;;1.33;0.50;;;14.70;83.40;;;;;;5073500;28;20496;-88
2023/10/21 06:47:34;;;;;;;1.40;0.57;;;14.70;83.20;;;;;;5074613;28;20485;-88
2023/10/21 06:50:03;;;;;;;1.30;0.60;;;14.70;82.90;;;;;;5073213;28;20462;-90
2023/10/21 06:52:31;;;;;;;1.00;0.60;;;14.70;83.00;;;;;;5057460;28;20452;-88
2023/10/21 06:55:01;;;;;;;3.33;0.83;;;14.70;82.70;;;;;;5076162;28;20475;-89
2023/10/21 06:57:29;;;;;;;1.03;0.60;;;14.70;82.90;;;;;;5076953;28;20974;-89
2023/10/21 06:59:59;;;;;;;2.00;0.60;;;14.70;82.60;;;;;;5079322;28;20487;-87
2023/10/21 07:02:30;;;;;;;0.90;0.40;;;14.70;82.80;;;;;;5084209;28;20870;-86
2023/10/21 07:04:59;;;;;;;1.60;0.80;;;14.70;82.60;;;;;;5084339;28;20460;-89
2023/10/21 07:07:27;;;;;;;1.67;0.90;;;14.70;81.80;;;;;;5087496;28;20515;-87
2023/10/21 07:09:56;;;;;;;1.67;0.70;;;14.70;82.90;;;;;;5085288;28;20495;-90
2023/10/21 07:12:26;;;;;;;1.33;0.70;;;14.70;82.20;;;;;;5084911;28;20433;-89
2023/10/21 07:14:54;;;;;;;1.23;0.70;;;14.70;82.20;;;;;;5082461;28;20611;-88
2023/10/21 07:17:22;;;;;;;1.57;0.50;;;14.70;82.00;;;;;;5080955;28;20483;-87
2023/10/21 07:19:51;;;;;;;1.10;0.70;;;14.70;82.40;;;;;;5077907;28;20468;-90
2023/10/21 07:22:19;;;;;;;1.70;0.83;;;14.70;82.30;;;;;;5078040;28;20461;-87
2023/10/21 07:24:47;;;;;;;1.17;0.60;;;14.70;82.10;;;;;;5078423;28;20533;-87
2023/10/21 07:27:15;;;;;;;1.40;0.53;;;14.70;81.90;;;;;;5077861;28;20438;-88
2023/10/21 07:29:45;;;;;;;1.30;0.60;;;14.70;81.80;;;;;;5070077;28;20958;-92
2023/10/21 07:32:13;;;;;;;0.93;0.57;;;14.70;81.60;;;;;;5050313;28;20441;-87
2023/10/21 07:34:41;;;;;;;1.20;0.50;;;14.70;81.40;;;;;;5050201;28;20519;-89
2023/10/21 07:37:10;;;;;;;1.40;0.60;;;14.70;81.30;;;;;;5050764;28;20424;-89
2023/10/21 07:39:38;;;;;;;1.00;0.60;;;14.70;81.20;;;;;;5050476;28;20457;-89
2023/10/21 07:42:06;;;;;;;1.20;0.50;;;14.70;81.90;;;;;;5085293;28;20800;-88
2023/10/21 07:44:35;;;;;;;1.00;0.60;;;14.70;80.70;;;;;;5072804;28;20471;-88
2023/10/21 07:47:06;;;;;;;1.10;0.50;;;14.70;80.80;;;;;;5078548;28;20980;-88
2023/10/21 07:49:34;;;;;;;1.00;0.50;;;14.70;80.80;;;;;;5071443;28;20469;-88
2023/10/21 07:52:03;;;;;;;1.20;0.60;;;14.70;81.00;;;;;;5072277;28;20425;-88
2023/10/21 07:54:31;;;;;;;2.37;0.70;;;14.70;80.70;;;;;;5053295;28;20470;-91
2023/10/21 07:57:00;;;;;;;0.93;0.40;;;14.70;80.90;;;;;;5069969;28;21016;-92
2023/10/21 07:59:28;;;;;;;1.87;0.50;;;14.70;80.40;;;;;;5068884;28;20875;-91
2023/10/21 08:01:56;;;;;;;1.20;0.60;;;14.70;80.80;;;;;;5070758;28;20857;-91
2023/10/21 08:04:31;;;;;;;1.10;0.60;;;14.70;80.60;;;;;;5071431;28;20488;-90
2023/10/21 08:07:00;;;;;;;0.90;0.50;;;14.70;80.50;;;;;;5074150;28;20416;-88
2023/10/21 08:09:28;;;;;;;1.67;0.70;;;14.70;80.50;;;;;;5064037;28;20822;-89
2023/10/21 08:11:56;;;;;;;0.97;0.50;;;14.70;80.50;;;;;;5054577;28;20464;-91
2023/10/21 08:14:27;;;;;;;0.97;0.60;;;14.70;80.40;;;;;;5061897;28;20992;-91
2023/10/21 08:16:55;;;;;;;1.47;0.60;;;14.70;80.40;;;;;;5055553;28;20889;-92
2023/10/21 08:19:24;;;;;;;1.57;0.43;;;14.70;80.20;;;;;;5071147;28;20477;-91
2023/10/21 08:21:54;;;;;;;1.00;0.40;;;14.70;80.50;;;;;;5072333;28;20468;-92
2023/10/21 08:24:22;;;;;;;0.97;0.50;;;14.70;80.40;;;;;;5071296;28;20459;-89
2023/10/21 08:26:50;;;;;;;2.00;0.50;;;14.70;80.60;;;;;;5085870;28;20432;-89
2023/10/21 08:29:20;;;;;;;3.50;0.80;;;14.70;80.30;;;;;;5068913;28;20489;-88
2023/10/21 08:31:48;;;;;;;2.03;0.90;;;14.70;80.40;;;;;;5069236;28;20439;-88
2023/10/21 08:34:16;;;;;;;1.13;0.60;;;14.70;80.50;;;;;;5068637;28;20490;-87
2023/10/21 08:36:45;;;;;;;1.50;0.80;;;14.70;79.70;;;;;;5069178;28;20432;-87
2023/10/21 08:39:14;;;;;;;1.00;0.60;;;14.80;80.00;;;;;;5068575;28;20997;-86
2023/10/21 08:41:43;;;;;;;1.37;0.60;;;14.80;79.90;;;;;;5070056;28;20466;-86
2023/10/21 08:44:13;;;;;;;3.60;0.73;;;14.80;79.80;;;;;;5064098;28;20454;-87
2023/10/21 08:46:42;;;;;;;1.67;0.70;;;14.90;79.30;;;;;;5057269;28;20442;-86
2023/10/21 08:49:11;;;;;;;1.73;0.60;;;15.00;78.40;;;;;;5084957;28;20510;-88
2023/10/21 08:51:39;;;;;;;1.50;0.67;;;15.00;78.20;;;;;;5091625;28;20587;-89
2023/10/21 08:54:08;;;;;;;1.60;0.70;;;15.00;78.40;;;;;;5061198;28;20470;-89
2023/10/21 08:56:38;;;;;;;1.67;0.70;;;15.00;78.30;;;;;;5060107;28;20986;-92
2023/10/21 08:59:07;;;;;;;1.27;0.60;;;14.90;78.20;;;;;;5053928;28;20457;-90
2023/10/21 09:01:36;;;;;;;0.90;0.40;;;14.90;78.30;;;;;;5066236;28;20434;-90
2023/10/21 09:04:05;;;;;;;1.00;0.57;;;15.00;78.40;;;;;;5091616;28;20546;-87
2023/10/21 09:06:33;;;;;;;1.33;0.60;;;14.90;78.50;;;;;;5078315;28;20460;-90
2023/10/21 09:09:04;;;;;;;1.27;0.70;;;15.00;78.50;;;;;;5074708;28;20461;-91
2023/10/21 09:11:32;;;;;;;1.80;0.60;;;14.90;78.30;;;;;;5074399;28;20440;-90
2023/10/21 09:14:02;;;;;;;1.43;0.90;;;14.90;78.40;;;;;;5071193;28;20458;-91
2023/10/21 09:16:32;;;;;;;1.83;1.00;;;15.00;78.40;;;;;;5062706;28;20467;-87
2023/10/21 09:19:03;;;;;;;1.70;0.60;;;15.00;78.20;;;;;;5072061;28;20458;-88
2023/10/21 09:21:36;;;;;;;1.07;0.50;;;15.00;78.20;;;;;;5067480;28;20425;-88
2023/10/21 09:24:06;;;;;;;1.30;1.10;;;15.00;78.10;;;;;;5072867;28;20811;-89
2023/10/21 09:26:34;;;;;;;1.00;0.47;;;14.90;78.10;;;;;;5077600;28;20440;-89
2023/10/21 09:29:11;;;;;;;1.07;0.60;;;14.90;78.00;;;;;;5078262;28;20460;-89
2023/10/21 09:31:47;;;;;;;2.37;1.10;;;15.00;78.30;;;;;;5066049;28;20486;-86
2023/10/21 09:34:45;;;;;;;1.10;0.57;;;15.00;78.10;;;;;;5088690;28;20487;-87
2023/10/21 09:37:13;;;;;;;3.27;0.60;;;14.90;78.00;;;;;;5080768;28;20515;-89
2023/10/21 09:39:43;;;;;;;0.90;0.50;;;15.00;78.30;;;;;;5067165;28;20537;-87
2023/10/21 09:42:11;;;;;;;2.23;0.67;;;15.00;77.90;;;;;;5074552;28;20473;-87
2023/10/21 09:44:42;;;;;;;1.67;0.70;;;15.00;78.00;;;;;;5060853;28;20461;-92
2023/10/21 09:47:12;;;;;;;1.53;0.43;;;15.00;77.90;;;;;;5081899;28;20431;-92
2023/10/21 09:49:42;;;;;;;1.10;0.50;;;15.00;78.20;;;;;;5074411;28;20473;-89
2023/10/21 09:52:16;;;;;;;2.70;0.50;;;15.00;78.10;;;;;;5066683;28;20513;-88
2023/10/21 09:54:46;;;;;;;1.30;0.40;;;15.00;77.90;;;;;;5074051;28;21002;-86
2023/10/21 09:57:15;;;;;;;1.77;0.67;;;15.00;78.00;;;;;;5069477;28;20417;-88
2023/10/21 09:59:47;;;;;;;1.13;0.70;;;15.00;77.90;;;;;;5076955;28;20464;-88
2023/10/21 10:02:19;;;;;;;1.50;0.80;;;15.00;78.00;;;;;;5079961;28;20437;-88
2023/10/21 10:04:49;;;;;;;1.10;0.40;;;15.10;77.80;;;;;;5078200;28;20469;-87
2023/10/21 10:07:18;;;;;;;2.80;0.70;;;15.10;77.80;;;;;;5072557;28;20456;-89
2023/10/21 10:10:07;;;;;;;1.53;0.60;;;15.00;77.80;;;;;;5085726;28;20470;-88
2023/10/21 10:12:39;;;;;;;1.10;0.40;;;15.00;77.80;;;;;;5071849;28;20803;-86
2023/10/21 10:15:29;;;;;;;1.20;0.77;;;15.00;77.90;;;;;;5065837;28;20474;-87
2023/10/21 10:17:58;;;;;;;1.80;0.60;;;15.00;78.00;;;;;;5071363;28;20434;-89
2023/10/21 10:20:28;;;;;;;1.43;0.50;;;15.00;77.90;;;;;;5071628;28;20477;-89
2023/10/21 10:23:01;;;;;;;0.90;0.40;;;15.00;77.90;;;;;;5074471;28;20797;-88
2023/10/21 10:25:33;;;;;;;2.50;1.07;;;15.00;77.80;;;;;;5064656;28;20511;-91
2023/10/21 10:28:07;;;;;;;1.20;0.60;;;15.00;77.80;;;;;;5063737;28;20441;-91
2023/10/21 10:30:43;;;;;;;1.27;0.70;;;15.00;78.00;;;;;;5079884;28;20468;-89
2023/10/21 10:33:16;;;;;;;1.10;0.50;;;15.00;77.80;;;;;;5074127;28;20429;-92
2023/10/21 10:35:48;;;;;;;1.40;0.60;;;15.00;77.90;;;;;;5075436;28;20878;-89
2023/10/21 10:38:20;;;;;;;2.63;0.67;;;15.00;79.00;;;;;;5080174;28;20447;-88
2023/10/21 10:40:50;;;;;;;1.30;0.60;;;15.00;77.70;;;;;;5072761;28;20469;-88
2023/10/21 10:43:19;;;;;;;1.27;0.70;;;15.00;77.40;;;;;;5071797;28;20458;-90
2023/10/21 10:45:49;;;;;;;4.80;1.57;;;15.00;77.40;;;;;;5070803;28;20504;-87
2023/10/21 10:48:18;;;;;;;2.10;0.70;;;15.00;77.60;;;;;;5071176;28;20943;-91
2023/10/21 10:50:47;;;;;;;2.30;0.53;;;15.00;77.50;;;;;;5070414;28;20846;-88
2023/10/21 10:53:17;;;;;;;2.33;0.57;;;15.00;77.40;;;;;;5071434;28;20432;-90
2023/10/21 10:55:48;;;;;;;1.70;0.63;;;15.00;77.40;;;;;;5070547;28;20466;-89
2023/10/21 10:58:18;;;;;;;1.93;0.50;;;15.00;77.30;;;;;;5071369;28;20505;-86
2023/10/21 11:00:48;;;;;;;2.00;0.80;;;15.00;77.40;;;;;;5070501;28;20461;-88
2023/10/21 11:03:24;;;;;;;1.40;0.63;;;15.00;77.50;;;;;;5071587;28;20423;-90
2023/10/21 11:05:55;;;;;;;1.87;0.60;;;15.00;77.30;;;;;;5070296;28;20500;-89
2023/10/21 11:08:24;;;;;;;2.10;0.70;;;15.00;77.30;;;;;;5071661;28;20475;-92
2023/10/21 11:11:01;;;;;;;1.67;0.67;;;15.00;77.30;;;;;;5071199;28;20488;-86
2023/10/21 11:13:30;;;;;;;2.73;0.70;;;15.00;77.30;;;;;;5071923;28;20414;-87
2023/10/21 11:16:00;;;;;;;1.67;0.70;;;15.00;76.90;;;;;;5072097;28;20991;-90
2023/10/21 11:18:30;;;;;;;2.33;0.63;;;15.00;76.90;;;;;;5071400;28;20818;-91
2023/10/21 11:20:58;;;;;;;2.03;0.70;;;15.00;77.00;;;;;;5070492;28;20465;-90
2023/10/21 11:23:28;;;;;;;2.03;0.90;;;15.00;76.90;;;;;;5071393;28;20426;-92
2023/10/21 11:25:58;;;;;;;2.77;0.70;;;15.00;77.10;;;;;;5077435;28;20468;-90
2023/10/21 11:28:27;;;;;;;1.03;0.67;;;15.00;76.50;;;;;;5062840;28;20534;-89
2023/10/21 11:30:58;;;;;;;1.90;1.00;;;15.00;76.70;;;;;;5053080;28;20467;-87
2023/10/21 11:33:28;;;;;;;2.00;0.60;;;15.00;76.70;;;;;;5053890;28;20814;-89
2023/10/21 11:35:57;;;;;;;1.53;0.67;;;15.00;76.80;;;;;;5052848;28;20476;-88
2023/10/21 11:38:28;;;;;;;1.23;0.70;;;15.00;76.80;;;;;;5053887;28;20879;-89
2023/10/21 11:40:59;;;;;;;2.27;0.60;;;15.00;76.80;;;;;;5052842;28;20479;-88
2023/10/21 11:43:28;;;;;;;1.50;0.93;;;15.00;76.80;;;;;;5053503;28;20911;-88
2023/10/21 11:45:57;;;;;;;2.10;0.70;;;15.00;76.40;;;;;;5069274;28;20468;-90
2023/10/21 11:48:28;;;;;;;2.30;1.23;;;15.00;76.70;;;;;;5054941;28;20425;-88
2023/10/21 11:50:56;;;;;;;3.83;0.93;;;15.00;76.60;;;;;;5080389;28;20487;-87
2023/10/21 11:53:26;;;;;;;1.30;0.50;;;15.00;76.50;;;;;;5055440;28;20448;-92
2023/10/21 12:16:55;;;;;;;3.73;0.90;;;15.00;75.70;;;;;;5043908;28;20449;-88
2023/10/21 12:19:50;;;;;;;2.80;1.00;;;15.10;75.70;;;;;;5060062;28;21006;-91
2023/10/21 12:22:53;;;;;;;2.63;1.37;;;15.00;75.20;;;;;;5066526;28;20932;-88
2023/10/21 12:29:12;;;;;;;2.40;1.13;;;15.10;75.30;;;;;;5087121;28;20426;-89
2023/10/21 12:31:39;;;;;;;2.17;0.93;;;15.10;75.30;;;;;;5072451;28;20455;-91
2023/10/21 13:06:54;;;;;;;1.20;0.60;;;15.10;75.30;;;;;;5042712;28;20437;-87
2023/10/21 13:09:24;;;;;;;2.37;0.90;;;15.10;75.20;;;;;;5037361;28;20526;-92
2023/10/21 13:11:52;;;;;;;2.73;0.70;;;15.10;75.30;;;;;;5086203;28;20493;-88
2023/10/21 13:14:23;;;;;;;1.43;0.60;;;15.10;75.90;;;;;;5082357;28;20460;-87
2023/10/21 13:16:52;;;;;;;1.80;0.83;;;15.10;74.40;;;;;;5072001;28;20793;-88
2023/10/21 13:19:21;;;;;;;3.60;1.60;;;15.10;75.00;;;;;;5064396;28;20825;-88
2023/10/21 13:21:54;;;;;;;2.80;1.10;;;15.10;75.00;;;;;;5073605;28;20465;-88
2023/10/21 16:04:20;;;;;;;1.87;0.50;;;15.20;73.80;;;;;;5049856;28;20459;-86
2023/10/21 16:06:51;;;;;;;2.20;1.00;;;15.10;74.00;;;;;;5049608;28;20434;-86
2023/10/21 16:09:19;;;;;;;5.10;1.40;;;15.10;73.90;;;;;;5032391;28;20980;-87
2023/10/21 16:11:47;;;;;;;3.13;0.83;;;15.20;74.00;;;;;;5033003;28;20831;-85
2023/10/21 16:14:17;;;;;;;3.60;1.17;;;15.20;74.10;;;;;;5032433;28;20995;-84
2023/10/21 16:16:45;;;;;;;1.80;0.83;;;15.20;73.70;;;;;;5049550;28;20422;-84
2023/10/21 16:19:14;;;;;;;3.40;0.80;;;15.20;73.80;;;;;;5048005;28;20478;-84
2023/10/21 16:21:44;;;;;;;2.43;1.17;;;15.20;74.40;;;;;;5049374;28;20441;-84
2023/10/21 16:24:13;;;;;;;1.93;1.00;;;15.20;74.00;;;;;;5032363;28;20462;-85
2023/10/21 16:26:41;;;;;;;3.93;0.93;;;15.20;73.80;;;;;;5032499;28;20454;-84
2023/10/21 16:29:14;;;;;;;2.53;0.90;;;15.10;73.80;;;;;;5032355;28;20515;-88
2023/10/21 16:31:42;;;;;;;1.83;0.70;;;15.20;73.90;;;;;;5049813;28;20446;-88
2023/10/21 16:34:10;;;;;;;2.57;1.20;;;15.20;73.90;;;;;;5032760;28;20465;-88
2023/10/21 16:36:39;;;;;;;2.87;0.93;;;15.20;74.10;;;;;;5033292;28;20451;-89